Plano's Hourly Summary for Friday, April 14, 2017
Hour Temp
(f)
RH
(%)
Solar Rad.
(MJ/m2)
Rainfall
(in)
Wind
(mph)
4/14/2017 12:00 AM 70 59 0 0 1.12
4/14/2017 1:00 AM 69 61 0 0 2.71
4/14/2017 2:00 AM 70 55 0 0 4.65
4/14/2017 3:00 AM 69 53 0 0 4.1
4/14/2017 4:00 AM 68 59 0 0 3.1
4/14/2017 5:00 AM 68 60 0 0 3.63
4/14/2017 6:00 AM 67 63 0 0 3.03
4/14/2017 7:00 AM 66 72 0 0 2.19
4/14/2017 8:00 AM 66 71 0.18 0 2.93
4/14/2017 9:00 AM 66 73 0.45 0 3.23
4/14/2017 10:00 AM 67 68 0.88 0 3.8
4/14/2017 11:00 AM 69 63 1.26 0 4.57
4/14/2017 12:00 PM 71 57 1.67 0 4.86
4/14/2017 1:00 PM 75 46 3.08 0 5.64
4/14/2017 2:00 PM 76 44 2.66 0 6.48
4/14/2017 3:00 PM 77 45 2.19 0 5.55
4/14/2017 4:00 PM 77 43 1.96 0 5.55
4/14/2017 5:00 PM 79 40 2.09 0 5.55
4/14/2017 6:00 PM 78 42 1.12 0 5.24
4/14/2017 7:00 PM 77 43 0.61 0 4.29
4/14/2017 8:00 PM 76 46 0.14 0 4.14
4/14/2017 9:00 PM 74 49 0 0 3.35
4/14/2017 10:00 PM 72 51 0 0 1.63
4/14/2017 11:00 PM 71 55 0 0 2.13
Data Summary 71 54 18.29 0.00 3.89